sensor_id;sensor_type;location;lat;lon;timestamp;P1;durP1;ratioP1;P2;durP2;ratioP2
73859;SDS011;62197;51.632;13.700;2023-04-06T00:00:45;11.05;;;4.57;;
73859;SDS011;62197;51.632;13.700;2023-04-06T00:03:10;6.85;;;3.92;;
73859;SDS011;62197;51.632;13.700;2023-04-06T00:05:35;11.07;;;5.00;;
73859;SDS011;62197;51.632;13.700;2023-04-06T00:08:01;13.40;;;4.95;;
73859;SDS011;62197;51.632;13.700;2023-04-06T00:10:26;9.90;;;4.35;;
73859;SDS011;62197;51.632;13.700;2023-04-06T00:12:52;10.75;;;5.30;;
73859;SDS011;62197;51.632;13.700;2023-04-06T00:17:43;9.17;;;4.73;;
73859;SDS011;62197;51.632;13.700;2023-04-06T00:20:09;6.47;;;4.40;;
73859;SDS011;62197;51.632;13.700;2023-04-06T00:22:35;8.82;;;4.50;;
73859;SDS011;62197;51.632;13.700;2023-04-06T00:25:00;8.60;;;4.40;;
73859;SDS011;62197;51.632;13.700;2023-04-06T00:27:25;8.15;;;4.43;;
73859;SDS011;62197;51.632;13.700;2023-04-06T00:29:51;9.05;;;4.35;;
73859;SDS011;62197;51.632;13.700;2023-04-06T00:32:16;8.68;;;4.07;;
73859;SDS011;62197;51.632;13.700;2023-04-06T00:34:41;9.18;;;4.63;;
73859;SDS011;62197;51.632;13.700;2023-04-06T00:37:07;8.18;;;4.75;;
73859;SDS011;62197;51.632;13.700;2023-04-06T00:39:32;8.45;;;4.18;;
73859;SDS011;62197;51.632;13.700;2023-04-06T00:41:57;6.55;;;4.35;;
73859;SDS011;62197;51.632;13.700;2023-04-06T00:44:23;9.95;;;4.68;;
73859;SDS011;62197;51.632;13.700;2023-04-06T00:46:49;8.18;;;4.13;;
73859;SDS011;62197;51.632;13.700;2023-04-06T00:49:15;7.75;;;4.25;;
73859;SDS011;62197;51.632;13.700;2023-04-06T00:51:40;6.97;;;3.80;;
73859;SDS011;62197;51.632;13.700;2023-04-06T00:54:05;8.13;;;4.40;;
73859;SDS011;62197;51.632;13.700;2023-04-06T00:56:31;8.13;;;4.47;;
73859;SDS011;62197;51.632;13.700;2023-04-06T00:58:57;7.32;;;4.40;;
73859;SDS011;62197;51.632;13.700;2023-04-06T01:01:23;8.60;;;4.75;;
73859;SDS011;62197;51.632;13.700;2023-04-06T01:06:15;9.63;;;4.68;;
73859;SDS011;62197;51.632;13.700;2023-04-06T01:08:41;7.45;;;4.32;;
73859;SDS011;62197;51.632;13.700;2023-04-06T01:11:06;7.93;;;4.65;;
73859;SDS011;62197;51.632;13.700;2023-04-06T01:13:31;7.78;;;4.45;;
73859;SDS011;62197;51.632;13.700;2023-04-06T01:15:57;6.18;;;4.10;;
73859;SDS011;62197;51.632;13.700;2023-04-06T01:18:26;10.07;;;4.88;;
73859;SDS011;62197;51.632;13.700;2023-04-06T01:20:52;7.15;;;4.85;;
73859;SDS011;62197;51.632;13.700;2023-04-06T01:23:18;9.13;;;4.72;;
73859;SDS011;62197;51.632;13.700;2023-04-06T01:25:43;8.77;;;4.78;;
73859;SDS011;62197;51.632;13.700;2023-04-06T01:28:08;8.30;;;4.03;;
73859;SDS011;62197;51.632;13.700;2023-04-06T01:30:34;6.05;;;4.40;;
73859;SDS011;62197;51.632;13.700;2023-04-06T01:32:59;6.53;;;4.07;;
73859;SDS011;62197;51.632;13.700;2023-04-06T01:35:25;9.40;;;4.40;;
73859;SDS011;62197;51.632;13.700;2023-04-06T01:37:51;7.57;;;5.13;;
73859;SDS011;62197;51.632;13.700;2023-04-06T01:40:17;7.75;;;4.75;;
73859;SDS011;62197;51.632;13.700;2023-04-06T01:42:42;7.60;;;4.28;;
73859;SDS011;62197;51.632;13.700;2023-04-06T01:45:08;10.00;;;5.13;;
73859;SDS011;62197;51.632;13.700;2023-04-06T01:47:33;9.48;;;4.97;;
73859;SDS011;62197;51.632;13.700;2023-04-06T01:49:58;8.80;;;5.28;;
73859;SDS011;62197;51.632;13.700;2023-04-06T01:52:24;10.30;;;4.95;;
73859;SDS011;62197;51.632;13.700;2023-04-06T01:54:49;7.70;;;4.72;;
73859;SDS011;62197;51.632;13.700;2023-04-06T01:57:15;9.00;;;5.35;;
73859;SDS011;62197;51.632;13.700;2023-04-06T01:59:40;9.45;;;4.97;;
73859;SDS011;62197;51.632;13.700;2023-04-06T02:02:05;9.02;;;4.68;;
73859;SDS011;62197;51.632;13.700;2023-04-06T02:04:31;8.68;;;5.22;;
73859;SDS011;62197;51.632;13.700;2023-04-06T02:06:56;9.57;;;4.90;;
73859;SDS011;62197;51.632;13.700;2023-04-06T02:09:21;11.48;;;5.07;;
73859;SDS011;62197;51.632;13.700;2023-04-06T02:11:47;12.23;;;5.07;;
73859;SDS011;62197;51.632;13.700;2023-04-06T02:14:12;11.02;;;4.70;;
73859;SDS011;62197;51.632;13.700;2023-04-06T02:16:37;9.48;;;5.35;;
73859;SDS011;62197;51.632;13.700;2023-04-06T02:19:03;7.60;;;4.43;;
73859;SDS011;62197;51.632;13.700;2023-04-06T02:21:28;9.85;;;4.70;;
73859;SDS011;62197;51.632;13.700;2023-04-06T02:23:54;10.05;;;4.90;;
73859;SDS011;62197;51.632;13.700;2023-04-06T02:26:19;9.23;;;5.05;;
73859;SDS011;62197;51.632;13.700;2023-04-06T02:28:45;10.18;;;5.03;;
73859;SDS011;62197;51.632;13.700;2023-04-06T02:31:10;8.82;;;4.82;;
73859;SDS011;62197;51.632;13.700;2023-04-06T02:33:36;8.18;;;4.72;;
73859;SDS011;62197;51.632;13.700;2023-04-06T02:36:01;7.80;;;4.18;;
73859;SDS011;62197;51.632;13.700;2023-04-06T02:38:27;7.25;;;4.65;;
73859;SDS011;62197;51.632;13.700;2023-04-06T02:40:52;7.78;;;4.50;;
73859;SDS011;62197;51.632;13.700;2023-04-06T02:43:18;11.02;;;4.95;;
73859;SDS011;62197;51.632;13.700;2023-04-06T02:45:44;8.15;;;5.05;;
73859;SDS011;62197;51.632;13.700;2023-04-06T02:48:09;9.40;;;5.00;;
73859;SDS011;62197;51.632;13.700;2023-04-06T02:50:35;8.63;;;4.70;;
73859;SDS011;62197;51.632;13.700;2023-04-06T02:53:00;8.30;;;4.93;;
73859;SDS011;62197;51.632;13.700;2023-04-06T02:55:25;11.65;;;5.43;;
73859;SDS011;62197;51.632;13.700;2023-04-06T02:57:51;9.55;;;4.45;;
73859;SDS011;62197;51.632;13.700;2023-04-06T03:00:16;9.02;;;4.97;;
73859;SDS011;62197;51.632;13.700;2023-04-06T03:02:42;8.18;;;4.10;;
73859;SDS011;62197;51.632;13.700;2023-04-06T03:05:07;9.90;;;5.00;;
73859;SDS011;62197;51.632;13.700;2023-04-06T03:07:33;8.13;;;5.45;;
73859;SDS011;62197;51.632;13.700;2023-04-06T03:09:58;10.30;;;5.15;;
73859;SDS011;62197;51.632;13.700;2023-04-06T03:12:23;8.43;;;4.78;;
73859;SDS011;62197;51.632;13.700;2023-04-06T03:14:49;8.25;;;5.05;;
73859;SDS011;62197;51.632;13.700;2023-04-06T03:17:14;8.82;;;4.85;;
73859;SDS011;62197;51.632;13.700;2023-04-06T03:19:39;8.55;;;4.95;;
73859;SDS011;62197;51.632;13.700;2023-04-06T03:22:05;9.52;;;4.82;;
73859;SDS011;62197;51.632;13.700;2023-04-06T03:24:30;11.45;;;5.80;;
73859;SDS011;62197;51.632;13.700;2023-04-06T03:26:56;13.80;;;6.03;;
73859;SDS011;62197;51.632;13.700;2023-04-06T03:29:21;7.07;;;4.95;;
73859;SDS011;62197;51.632;13.700;2023-04-06T03:31:46;10.70;;;4.90;;
73859;SDS011;62197;51.632;13.700;2023-04-06T03:34:12;11.65;;;6.03;;
73859;SDS011;62197;51.632;13.700;2023-04-06T03:36:37;11.70;;;5.82;;
73859;SDS011;62197;51.632;13.700;2023-04-06T03:39:02;9.60;;;5.35;;
73859;SDS011;62197;51.632;13.700;2023-04-06T03:41:28;9.98;;;5.20;;
73859;SDS011;62197;51.632;13.700;2023-04-06T03:43:53;10.07;;;5.30;;
73859;SDS011;62197;51.632;13.700;2023-04-06T03:46:19;8.88;;;5.05;;
73859;SDS011;62197;51.632;13.700;2023-04-06T03:48:45;9.88;;;4.78;;
73859;SDS011;62197;51.632;13.700;2023-04-06T03:51:10;9.18;;;5.40;;
73859;SDS011;62197;51.632;13.700;2023-04-06T03:53:36;10.48;;;5.82;;
73859;SDS011;62197;51.632;13.700;2023-04-06T03:56:02;10.18;;;5.07;;
73859;SDS011;62197;51.632;13.700;2023-04-06T03:58:27;11.90;;;5.57;;
73859;SDS011;62197;51.632;13.700;2023-04-06T04:00:52;8.82;;;4.75;;
73859;SDS011;62197;51.632;13.700;2023-04-06T04:03:18;9.32;;;4.97;;
73859;SDS011;62197;51.632;13.700;2023-04-06T04:05:43;7.15;;;5.05;;
73859;SDS011;62197;51.632;13.700;2023-04-06T04:08:09;10.95;;;4.82;;
73859;SDS011;62197;51.632;13.700;2023-04-06T04:10:34;13.00;;;5.45;;
73859;SDS011;62197;51.632;13.700;2023-04-06T04:13:00;10.00;;;5.70;;
73859;SDS011;62197;51.632;13.700;2023-04-06T04:15:25;13.23;;;5.80;;
73859;SDS011;62197;51.632;13.700;2023-04-06T04:17:50;11.38;;;5.72;;
73859;SDS011;62197;51.632;13.700;2023-04-06T04:20:16;10.98;;;6.07;;
73859;SDS011;62197;51.632;13.700;2023-04-06T04:22:42;9.98;;;5.70;;
73859;SDS011;62197;51.632;13.700;2023-04-06T04:25:07;11.02;;;6.05;;
73859;SDS011;62197;51.632;13.700;2023-04-06T04:27:33;8.85;;;5.50;;
73859;SDS011;62197;51.632;13.700;2023-04-06T04:29:58;9.90;;;5.53;;
73859;SDS011;62197;51.632;13.700;2023-04-06T04:32:24;7.57;;;5.10;;
73859;SDS011;62197;51.632;13.700;2023-04-06T04:34:52;10.82;;;6.18;;
73859;SDS011;62197;51.632;13.700;2023-04-06T04:37:17;8.48;;;5.18;;
73859;SDS011;62197;51.632;13.700;2023-04-06T04:39:43;8.93;;;5.18;;
73859;SDS011;62197;51.632;13.700;2023-04-06T04:42:08;9.68;;;5.28;;
73859;SDS011;62197;51.632;13.700;2023-04-06T04:44:33;9.90;;;5.63;;
73859;SDS011;62197;51.632;13.700;2023-04-06T04:46:59;11.98;;;6.15;;
73859;SDS011;62197;51.632;13.700;2023-04-06T04:49:24;10.85;;;5.85;;
73859;SDS011;62197;51.632;13.700;2023-04-06T04:51:49;14.52;;;6.38;;
73859;SDS011;62197;51.632;13.700;2023-04-06T04:54:17;9.70;;;5.38;;
73859;SDS011;62197;51.632;13.700;2023-04-06T04:56:42;10.80;;;5.88;;
73859;SDS011;62197;51.632;13.700;2023-04-06T04:59:08;10.43;;;6.07;;
73859;SDS011;62197;51.632;13.700;2023-04-06T05:01:33;12.13;;;6.03;;
73859;SDS011;62197;51.632;13.700;2023-04-06T05:03:59;10.95;;;5.95;;
73859;SDS011;62197;51.632;13.700;2023-04-06T05:06:24;11.27;;;5.82;;
73859;SDS011;62197;51.632;13.700;2023-04-06T05:08:50;14.52;;;6.78;;
73859;SDS011;62197;51.632;13.700;2023-04-06T05:11:15;12.02;;;6.28;;
73859;SDS011;62197;51.632;13.700;2023-04-06T05:13:41;18.17;;;9.55;;
73859;SDS011;62197;51.632;13.700;2023-04-06T05:16:06;21.83;;;11.50;;
73859;SDS011;62197;51.632;13.700;2023-04-06T05:18:31;11.15;;;8.15;;
73859;SDS011;62197;51.632;13.700;2023-04-06T05:20:57;10.50;;;6.35;;
73859;SDS011;62197;51.632;13.700;2023-04-06T05:23:22;12.50;;;4.63;;
73859;SDS011;62197;51.632;13.700;2023-04-06T05:25:48;9.98;;;5.70;;
73859;SDS011;62197;51.632;13.700;2023-04-06T05:28:13;11.07;;;5.60;;
73859;SDS011;62197;51.632;13.700;2023-04-06T05:30:40;14.68;;;6.43;;
73859;SDS011;62197;51.632;13.700;2023-04-06T05:33:07;10.18;;;5.65;;
73859;SDS011;62197;51.632;13.700;2023-04-06T05:35:33;9.73;;;5.20;;
73859;SDS011;62197;51.632;13.700;2023-04-06T05:37:58;8.90;;;6.43;;
73859;SDS011;62197;51.632;13.700;2023-04-06T05:40:24;11.10;;;6.43;;
73859;SDS011;62197;51.632;13.700;2023-04-06T05:42:49;12.00;;;7.15;;
73859;SDS011;62197;51.632;13.700;2023-04-06T05:45:15;13.32;;;6.97;;
73859;SDS011;62197;51.632;13.700;2023-04-06T05:47:42;9.88;;;6.32;;
73859;SDS011;62197;51.632;13.700;2023-04-06T05:50:09;11.85;;;6.18;;
73859;SDS011;62197;51.632;13.700;2023-04-06T05:52:35;8.65;;;5.18;;
73859;SDS011;62197;51.632;13.700;2023-04-06T05:55:00;10.20;;;5.80;;
73859;SDS011;62197;51.632;13.700;2023-04-06T05:57:26;10.25;;;5.75;;
73859;SDS011;62197;51.632;13.700;2023-04-06T05:59:51;10.07;;;5.70;;
73859;SDS011;62197;51.632;13.700;2023-04-06T06:02:16;10.20;;;5.43;;
73859;SDS011;62197;51.632;13.700;2023-04-06T06:04:42;10.50;;;5.63;;
73859;SDS011;62197;51.632;13.700;2023-04-06T06:07:07;10.68;;;5.15;;
73859;SDS011;62197;51.632;13.700;2023-04-06T06:09:32;10.23;;;4.97;;
73859;SDS011;62197;51.632;13.700;2023-04-06T06:11:59;9.63;;;4.65;;
73859;SDS011;62197;51.632;13.700;2023-04-06T06:14:25;5.82;;;3.85;;
73859;SDS011;62197;51.632;13.700;2023-04-06T06:16:53;8.25;;;4.13;;
73859;SDS011;62197;51.632;13.700;2023-04-06T06:19:19;5.97;;;3.95;;
73859;SDS011;62197;51.632;13.700;2023-04-06T06:21:44;8.98;;;4.30;;
73859;SDS011;62197;51.632;13.700;2023-04-06T06:24:09;6.97;;;3.88;;
73859;SDS011;62197;51.632;13.700;2023-04-06T06:26:35;9.30;;;3.90;;
73859;SDS011;62197;51.632;13.700;2023-04-06T06:29:02;7.40;;;3.92;;
73859;SDS011;62197;51.632;13.700;2023-04-06T06:31:27;8.38;;;4.45;;
73859;SDS011;62197;51.632;13.700;2023-04-06T06:33:53;9.02;;;4.45;;
73859;SDS011;62197;51.632;13.700;2023-04-06T06:36:18;9.05;;;4.38;;
73859;SDS011;62197;51.632;13.700;2023-04-06T06:38:44;13.70;;;4.93;;
73859;SDS011;62197;51.632;13.700;2023-04-06T06:41:09;8.68;;;4.45;;
73859;SDS011;62197;51.632;13.700;2023-04-06T06:43:35;8.45;;;3.65;;
73859;SDS011;62197;51.632;13.700;2023-04-06T06:46:01;8.48;;;4.07;;
73859;SDS011;62197;51.632;13.700;2023-04-06T06:48:26;7.57;;;3.63;;
73859;SDS011;62197;51.632;13.700;2023-04-06T06:50:51;8.23;;;3.97;;
73859;SDS011;62197;51.632;13.700;2023-04-06T06:53:17;6.95;;;3.30;;
73859;SDS011;62197;51.632;13.700;2023-04-06T06:55:42;6.28;;;4.03;;
73859;SDS011;62197;51.632;13.700;2023-04-06T06:58:09;8.13;;;3.63;;
73859;SDS011;62197;51.632;13.700;2023-04-06T07:00:34;5.55;;;3.45;;
73859;SDS011;62197;51.632;13.700;2023-04-06T07:03:00;6.30;;;3.28;;
73859;SDS011;62197;51.632;13.700;2023-04-06T07:05:25;8.50;;;3.58;;
73859;SDS011;62197;51.632;13.700;2023-04-06T07:07:51;5.97;;;3.13;;
73859;SDS011;62197;51.632;13.700;2023-04-06T07:10:17;6.32;;;3.33;;
73859;SDS011;62197;51.632;13.700;2023-04-06T07:12:42;7.70;;;3.40;;
73859;SDS011;62197;51.632;13.700;2023-04-06T07:15:07;7.07;;;3.20;;
73859;SDS011;62197;51.632;13.700;2023-04-06T07:17:33;11.10;;;3.08;;
73859;SDS011;62197;51.632;13.700;2023-04-06T07:19:58;5.22;;;2.55;;
73859;SDS011;62197;51.632;13.700;2023-04-06T07:22:24;10.68;;;2.65;;
73859;SDS011;62197;51.632;13.700;2023-04-06T07:24:49;6.30;;;2.42;;
73859;SDS011;62197;51.632;13.700;2023-04-06T07:27:15;6.60;;;2.70;;
73859;SDS011;62197;51.632;13.700;2023-04-06T07:32:06;6.20;;;2.23;;
73859;SDS011;62197;51.632;13.700;2023-04-06T07:34:31;3.63;;;1.83;;
73859;SDS011;62197;51.632;13.700;2023-04-06T07:36:57;6.50;;;2.47;;
73859;SDS011;62197;51.632;13.700;2023-04-06T07:41:47;3.47;;;1.93;;
73859;SDS011;62197;51.632;13.700;2023-04-06T07:44:13;4.55;;;1.73;;
73859;SDS011;62197;51.632;13.700;2023-04-06T07:49:03;3.57;;;1.90;;
73859;SDS011;62197;51.632;13.700;2023-04-06T07:53:54;3.08;;;1.75;;
73859;SDS011;62197;51.632;13.700;2023-04-06T07:56:19;5.82;;;1.70;;
73859;SDS011;62197;51.632;13.700;2023-04-06T08:01:11;3.03;;;1.70;;
73859;SDS011;62197;51.632;13.700;2023-04-06T08:03:36;4.10;;;1.70;;
73859;SDS011;62197;51.632;13.700;2023-04-06T08:08:27;5.05;;;1.90;;
73859;SDS011;62197;51.632;13.700;2023-04-06T08:13:18;3.10;;;1.70;;
73859;SDS011;62197;51.632;13.700;2023-04-06T08:18:08;4.00;;;1.17;;
73859;SDS011;62197;51.632;13.700;2023-04-06T08:22:59;4.18;;;1.33;;
73859;SDS011;62197;51.632;13.700;2023-04-06T08:27:50;4.00;;;1.43;;
73859;SDS011;62197;51.632;13.700;2023-04-06T08:32:40;2.35;;;1.17;;
73859;SDS011;62197;51.632;13.700;2023-04-06T08:37:31;3.17;;;1.52;;
73859;SDS011;62197;51.632;13.700;2023-04-06T08:42:22;4.27;;;1.50;;
73859;SDS011;62197;51.632;13.700;2023-04-06T08:44:51;2.88;;;1.30;;
73859;SDS011;62197;51.632;13.700;2023-04-06T08:47:17;2.60;;;1.52;;
73859;SDS011;62197;51.632;13.700;2023-04-06T08:52:08;5.32;;;1.73;;
73859;SDS011;62197;51.632;13.700;2023-04-06T08:54:35;3.13;;;1.30;;
73859;SDS011;62197;51.632;13.700;2023-04-06T08:59:27;3.35;;;1.33;;
73859;SDS011;62197;51.632;13.700;2023-04-06T09:04:18;3.55;;;1.60;;
73859;SDS011;62197;51.632;13.700;2023-04-06T09:09:08;4.05;;;1.60;;
73859;SDS011;62197;51.632;13.700;2023-04-06T09:14:08;3.30;;;1.60;;
73859;SDS011;62197;51.632;13.700;2023-04-06T09:19:04;3.20;;;1.45;;
73859;SDS011;62197;51.632;13.700;2023-04-06T09:21:30;3.15;;;1.50;;
73859;SDS011;62197;51.632;13.700;2023-04-06T09:26:27;1.98;;;1.15;;
73859;SDS011;62197;51.632;13.700;2023-04-06T09:31:23;5.25;;;1.42;;
73859;SDS011;62197;51.632;13.700;2023-04-06T09:33:50;3.75;;;1.58;;
73859;SDS011;62197;51.632;13.700;2023-04-06T09:36:17;3.45;;;2.10;;
73859;SDS011;62197;51.632;13.700;2023-04-06T09:41:22;2.17;;;1.25;;
73859;SDS011;62197;51.632;13.700;2023-04-06T09:43:49;5.00;;;1.65;;
73859;SDS011;62197;51.632;13.700;2023-04-06T09:46:15;2.85;;;1.55;;
73859;SDS011;62197;51.632;13.700;2023-04-06T09:48:41;2.40;;;1.60;;
73859;SDS011;62197;51.632;13.700;2023-04-06T09:51:07;2.67;;;1.42;;
73859;SDS011;62197;51.632;13.700;2023-04-06T09:53:37;2.85;;;1.70;;
73859;SDS011;62197;51.632;13.700;2023-04-06T09:56:06;3.13;;;1.90;;
73859;SDS011;62197;51.632;13.700;2023-04-06T09:58:37;3.15;;;1.33;;
73859;SDS011;62197;51.632;13.700;2023-04-06T10:01:11;3.92;;;1.70;;
73859;SDS011;62197;51.632;13.700;2023-04-06T10:03:44;6.70;;;1.90;;
73859;SDS011;62197;51.632;13.700;2023-04-06T10:06:16;3.28;;;1.30;;
73859;SDS011;62197;51.632;13.700;2023-04-06T10:08:46;3.15;;;1.48;;
73859;SDS011;62197;51.632;13.700;2023-04-06T10:11:14;3.50;;;1.63;;
73859;SDS011;62197;51.632;13.700;2023-04-06T10:13:41;3.58;;;1.75;;
73859;SDS011;62197;51.632;13.700;2023-04-06T10:16:07;1.92;;;1.20;;
73859;SDS011;62197;51.632;13.700;2023-04-06T10:18:32;3.88;;;1.70;;
73859;SDS011;62197;51.632;13.700;2023-04-06T10:23:29;2.22;;;1.42;;
73859;SDS011;62197;51.632;13.700;2023-04-06T10:28:26;4.45;;;1.70;;
73859;SDS011;62197;51.632;13.700;2023-04-06T10:30:57;4.20;;;1.70;;
73859;SDS011;62197;51.632;13.700;2023-04-06T10:33:29;2.25;;;1.50;;
73859;SDS011;62197;51.632;13.700;2023-04-06T10:35:54;4.35;;;1.60;;
73859;SDS011;62197;51.632;13.700;2023-04-06T10:38:35;4.10;;;1.63;;
73859;SDS011;62197;51.632;13.700;2023-04-06T10:41:04;3.42;;;1.70;;
73859;SDS011;62197;51.632;13.700;2023-04-06T10:43:33;4.25;;;1.70;;
73859;SDS011;62197;51.632;13.700;2023-04-06T10:46:02;5.00;;;2.00;;
73859;SDS011;62197;51.632;13.700;2023-04-06T10:48:38;3.60;;;1.58;;
73859;SDS011;62197;51.632;13.700;2023-04-06T10:51:08;3.22;;;2.08;;
73859;SDS011;62197;51.632;13.700;2023-04-06T10:53:35;2.95;;;1.50;;
73859;SDS011;62197;51.632;13.700;2023-04-06T10:56:01;2.95;;;1.85;;
73859;SDS011;62197;51.632;13.700;2023-04-06T10:58:27;3.97;;;1.90;;
73859;SDS011;62197;51.632;13.700;2023-04-06T11:00:53;2.15;;;1.70;;
73859;SDS011;62197;51.632;13.700;2023-04-06T11:03:19;3.50;;;2.03;;
73859;SDS011;62197;51.632;13.700;2023-04-06T11:05:45;2.60;;;2.20;;
73859;SDS011;62197;51.632;13.700;2023-04-06T11:08:21;3.75;;;2.17;;
73859;SDS011;62197;51.632;13.700;2023-04-06T11:10:50;2.88;;;1.85;;
73859;SDS011;62197;51.632;13.700;2023-04-06T11:13:16;6.22;;;2.30;;
73859;SDS011;62197;51.632;13.700;2023-04-06T11:18:06;4.03;;;2.20;;
73859;SDS011;62197;51.632;13.700;2023-04-06T11:20:31;2.78;;;1.70;;
73859;SDS011;62197;51.632;13.700;2023-04-06T11:22:57;4.28;;;1.88;;
73859;SDS011;62197;51.632;13.700;2023-04-06T11:25:24;4.93;;;2.10;;
73859;SDS011;62197;51.632;13.700;2023-04-06T11:27:51;3.55;;;1.73;;
73859;SDS011;62197;51.632;13.700;2023-04-06T11:30:16;4.05;;;1.98;;
73859;SDS011;62197;51.632;13.700;2023-04-06T11:32:44;3.40;;;1.83;;
73859;SDS011;62197;51.632;13.700;2023-04-06T11:35:10;3.80;;;1.92;;
73859;SDS011;62197;51.632;13.700;2023-04-06T11:37:46;5.20;;;2.00;;
73859;SDS011;62197;51.632;13.700;2023-04-06T11:40:11;3.08;;;1.98;;
73859;SDS011;62197;51.632;13.700;2023-04-06T11:42:37;3.67;;;1.98;;
73859;SDS011;62197;51.632;13.700;2023-04-06T11:45:02;3.63;;;1.98;;
73859;SDS011;62197;51.632;13.700;2023-04-06T11:47:33;3.08;;;1.77;;
73859;SDS011;62197;51.632;13.700;2023-04-06T11:50:07;3.92;;;1.90;;
73859;SDS011;62197;51.632;13.700;2023-04-06T11:52:34;3.50;;;1.80;;
73859;SDS011;62197;51.632;13.700;2023-04-06T11:55:09;3.25;;;1.83;;
73859;SDS011;62197;51.632;13.700;2023-04-06T11:57:43;3.63;;;1.95;;
73859;SDS011;62197;51.632;13.700;2023-04-06T12:00:10;3.20;;;1.83;;
73859;SDS011;62197;51.632;13.700;2023-04-06T12:02:36;3.30;;;2.38;;
73859;SDS011;62197;51.632;13.700;2023-04-06T12:05:03;3.38;;;1.75;;
73859;SDS011;62197;51.632;13.700;2023-04-06T12:07:29;4.43;;;1.80;;
73859;SDS011;62197;51.632;13.700;2023-04-06T12:09:55;2.70;;;1.92;;
73859;SDS011;62197;51.632;13.700;2023-04-06T12:12:20;4.10;;;2.50;;
73859;SDS011;62197;51.632;13.700;2023-04-06T12:14:46;3.92;;;2.40;;
73859;SDS011;62197;51.632;13.700;2023-04-06T12:17:11;2.65;;;1.85;;
73859;SDS011;62197;51.632;13.700;2023-04-06T12:19:36;3.00;;;1.73;;
73859;SDS011;62197;51.632;13.700;2023-04-06T12:22:02;2.67;;;1.52;;
73859;SDS011;62197;51.632;13.700;2023-04-06T12:24:27;2.53;;;1.50;;
73859;SDS011;62197;51.632;13.700;2023-04-06T12:26:53;3.65;;;1.90;;
73859;SDS011;62197;51.632;13.700;2023-04-06T12:29:19;3.20;;;1.70;;
73859;SDS011;62197;51.632;13.700;2023-04-06T12:31:44;4.88;;;2.15;;
73859;SDS011;62197;51.632;13.700;2023-04-06T12:34:10;4.70;;;1.90;;
73859;SDS011;62197;51.632;13.700;2023-04-06T12:36:36;4.53;;;2.00;;
73859;SDS011;62197;51.632;13.700;2023-04-06T12:39:02;3.53;;;1.83;;
73859;SDS011;62197;51.632;13.700;2023-04-06T12:41:28;3.38;;;1.98;;
73859;SDS011;62197;51.632;13.700;2023-04-06T12:43:53;3.75;;;2.22;;
73859;SDS011;62197;51.632;13.700;2023-04-06T12:46:19;2.40;;;1.77;;
73859;SDS011;62197;51.632;13.700;2023-04-06T12:48:45;3.08;;;1.95;;
73859;SDS011;62197;51.632;13.700;2023-04-06T12:51:11;4.18;;;2.15;;
73859;SDS011;62197;51.632;13.700;2023-04-06T12:53:36;2.97;;;1.70;;
73859;SDS011;62197;51.632;13.700;2023-04-06T12:56:02;3.08;;;1.42;;
73859;SDS011;62197;51.632;13.700;2023-04-06T12:58:36;1.85;;;1.58;;
73859;SDS011;62197;51.632;13.700;2023-04-06T13:01:05;3.22;;;1.95;;
73859;SDS011;62197;51.632;13.700;2023-04-06T13:03:31;3.38;;;1.90;;
73859;SDS011;62197;51.632;13.700;2023-04-06T13:05:56;3.38;;;1.60;;
73859;SDS011;62197;51.632;13.700;2023-04-06T13:08:24;4.47;;;2.20;;
73859;SDS011;62197;51.632;13.700;2023-04-06T13:10:50;4.05;;;1.95;;
73859;SDS011;62197;51.632;13.700;2023-04-06T13:13:24;2.42;;;1.80;;
73859;SDS011;62197;51.632;13.700;2023-04-06T13:15:51;4.22;;;1.60;;
73859;SDS011;62197;51.632;13.700;2023-04-06T13:18:17;3.22;;;1.55;;
73859;SDS011;62197;51.632;13.700;2023-04-06T13:20:42;2.63;;;1.38;;
73859;SDS011;62197;51.632;13.700;2023-04-06T13:23:08;3.13;;;1.80;;
73859;SDS011;62197;51.632;13.700;2023-04-06T13:25:33;2.58;;;1.63;;
73859;SDS011;62197;51.632;13.700;2023-04-06T13:28:00;2.70;;;2.15;;
73859;SDS011;62197;51.632;13.700;2023-04-06T13:30:25;1.67;;;1.58;;
73859;SDS011;62197;51.632;13.700;2023-04-06T13:32:51;2.90;;;1.60;;
73859;SDS011;62197;51.632;13.700;2023-04-06T13:35:16;3.17;;;1.80;;
73859;SDS011;62197;51.632;13.700;2023-04-06T13:37:42;2.97;;;2.15;;
73859;SDS011;62197;51.632;13.700;2023-04-06T13:40:08;4.25;;;2.10;;
73859;SDS011;62197;51.632;13.700;2023-04-06T13:42:34;2.75;;;1.65;;
73859;SDS011;62197;51.632;13.700;2023-04-06T13:45:05;3.35;;;1.60;;
73859;SDS011;62197;51.632;13.700;2023-04-06T13:47:30;4.13;;;1.77;;
73859;SDS011;62197;51.632;13.700;2023-04-06T13:49:56;2.45;;;1.75;;
73859;SDS011;62197;51.632;13.700;2023-04-06T13:52:21;3.35;;;1.55;;
73859;SDS011;62197;51.632;13.700;2023-04-06T13:54:48;3.33;;;1.55;;
73859;SDS011;62197;51.632;13.700;2023-04-06T13:57:13;3.92;;;1.80;;
73859;SDS011;62197;51.632;13.700;2023-04-06T13:59:39;3.22;;;1.83;;
73859;SDS011;62197;51.632;13.700;2023-04-06T14:02:05;2.40;;;1.45;;
73859;SDS011;62197;51.632;13.700;2023-04-06T14:04:32;2.95;;;1.63;;
73859;SDS011;62197;51.632;13.700;2023-04-06T14:06:58;2.97;;;1.60;;
73859;SDS011;62197;51.632;13.700;2023-04-06T14:09:24;2.33;;;1.30;;
73859;SDS011;62197;51.632;13.700;2023-04-06T14:11:50;2.63;;;1.42;;
73859;SDS011;62197;51.632;13.700;2023-04-06T14:14:16;3.55;;;1.73;;
73859;SDS011;62197;51.632;13.700;2023-04-06T14:16:42;4.22;;;1.55;;
73859;SDS011;62197;51.632;13.700;2023-04-06T14:19:11;3.58;;;1.77;;
73859;SDS011;62197;51.632;13.700;2023-04-06T14:21:39;3.10;;;1.48;;
73859;SDS011;62197;51.632;13.700;2023-04-06T14:24:06;1.95;;;1.38;;
73859;SDS011;62197;51.632;13.700;2023-04-06T14:26:33;3.55;;;1.67;;
73859;SDS011;62197;51.632;13.700;2023-04-06T14:28:58;2.72;;;1.63;;
73859;SDS011;62197;51.632;13.700;2023-04-06T14:31:25;2.95;;;1.60;;
73859;SDS011;62197;51.632;13.700;2023-04-06T14:33:51;3.78;;;2.05;;
73859;SDS011;62197;51.632;13.700;2023-04-06T14:36:16;2.95;;;1.73;;
73859;SDS011;62197;51.632;13.700;2023-04-06T14:38:42;3.05;;;1.60;;
73859;SDS011;62197;51.632;13.700;2023-04-06T14:41:09;2.95;;;1.50;;
73859;SDS011;62197;51.632;13.700;2023-04-06T14:43:43;2.97;;;1.70;;
73859;SDS011;62197;51.632;13.700;2023-04-06T14:46:08;2.70;;;1.60;;
73859;SDS011;62197;51.632;13.700;2023-04-06T14:48:34;2.75;;;1.75;;
73859;SDS011;62197;51.632;13.700;2023-04-06T14:51:00;5.70;;;2.90;;
73859;SDS011;62197;51.632;13.700;2023-04-06T14:53:25;3.45;;;1.65;;
73859;SDS011;62197;51.632;13.700;2023-04-06T14:55:51;3.92;;;1.50;;
73859;SDS011;62197;51.632;13.700;2023-04-06T14:58:17;2.03;;;1.27;;
73859;SDS011;62197;51.632;13.700;2023-04-06T15:00:43;1.73;;;1.30;;
73859;SDS011;62197;51.632;13.700;2023-04-06T15:03:09;5.03;;;1.63;;
73859;SDS011;62197;51.632;13.700;2023-04-06T15:05:34;3.38;;;1.35;;
73859;SDS011;62197;51.632;13.700;2023-04-06T15:08:00;3.70;;;1.92;;
73859;SDS011;62197;51.632;13.700;2023-04-06T15:10:25;2.30;;;1.25;;
73859;SDS011;62197;51.632;13.700;2023-04-06T15:12:51;2.75;;;1.52;;
73859;SDS011;62197;51.632;13.700;2023-04-06T15:15:16;2.30;;;1.40;;
73859;SDS011;62197;51.632;13.700;2023-04-06T15:17:41;2.45;;;1.52;;
73859;SDS011;62197;51.632;13.700;2023-04-06T15:20:07;2.00;;;1.42;;
73859;SDS011;62197;51.632;13.700;2023-04-06T15:22:32;3.50;;;1.80;;
73859;SDS011;62197;51.632;13.700;2023-04-06T15:24:59;4.03;;;2.17;;
73859;SDS011;62197;51.632;13.700;2023-04-06T15:27:24;3.15;;;1.50;;
73859;SDS011;62197;51.632;13.700;2023-04-06T15:29:50;2.25;;;1.60;;
73859;SDS011;62197;51.632;13.700;2023-04-06T15:32:15;2.97;;;1.58;;